sensor_id;sensor_type;location;lat;lon;timestamp;P1;durP1;ratioP1;P2;durP2;ratioP2
67861;SDS011;54665;51.462;6.698;2023-11-21T00:01:42;35.40;;;14.23;;
67861;SDS011;54665;51.462;6.698;2023-11-21T00:03:43;36.47;;;14.10;;
67861;SDS011;54665;51.462;6.698;2023-11-21T00:05:46;37.35;;;14.20;;
67861;SDS011;54665;51.462;6.698;2023-11-21T00:07:46;41.00;;;13.97;;
67861;SDS011;54665;51.462;6.698;2023-11-21T00:09:47;42.83;;;14.43;;
67861;SDS011;54665;51.462;6.698;2023-11-21T00:11:48;40.10;;;13.60;;
67861;SDS011;54665;51.462;6.698;2023-11-21T00:13:48;36.93;;;13.67;;
67861;SDS011;54665;51.462;6.698;2023-11-21T00:15:48;40.17;;;13.77;;
67861;SDS011;54665;51.462;6.698;2023-11-21T00:17:49;43.30;;;14.63;;
67861;SDS011;54665;51.462;6.698;2023-11-21T00:19:49;43.47;;;14.20;;
67861;SDS011;54665;51.462;6.698;2023-11-21T00:21:49;41.90;;;13.53;;
67861;SDS011;54665;51.462;6.698;2023-11-21T00:23:49;43.57;;;14.17;;
67861;SDS011;54665;51.462;6.698;2023-11-21T00:25:50;42.10;;;13.97;;
67861;SDS011;54665;51.462;6.698;2023-11-21T00:27:50;41.83;;;13.80;;
67861;SDS011;54665;51.462;6.698;2023-11-21T00:29:50;40.67;;;13.43;;
67861;SDS011;54665;51.462;6.698;2023-11-21T00:31:51;40.35;;;13.48;;
67861;SDS011;54665;51.462;6.698;2023-11-21T00:33:52;36.03;;;13.20;;
67861;SDS011;54665;51.462;6.698;2023-11-21T00:35:52;38.57;;;13.53;;
67861;SDS011;54665;51.462;6.698;2023-11-21T00:37:53;38.83;;;12.85;;
67861;SDS011;54665;51.462;6.698;2023-11-21T00:39:54;40.73;;;13.20;;
67861;SDS011;54665;51.462;6.698;2023-11-21T00:41:54;39.80;;;13.27;;
67861;SDS011;54665;51.462;6.698;2023-11-21T00:43:54;39.47;;;13.00;;
67861;SDS011;54665;51.462;6.698;2023-11-21T00:45:55;34.20;;;12.07;;
67861;SDS011;54665;51.462;6.698;2023-11-21T00:47:56;40.10;;;12.80;;
67861;SDS011;54665;51.462;6.698;2023-11-21T00:49:56;39.90;;;12.70;;
67861;SDS011;54665;51.462;6.698;2023-11-21T00:51:56;37.20;;;12.53;;
67861;SDS011;54665;51.462;6.698;2023-11-21T00:53:56;35.33;;;12.47;;
67861;SDS011;54665;51.462;6.698;2023-11-21T00:55:57;40.90;;;12.57;;
67861;SDS011;54665;51.462;6.698;2023-11-21T00:57:58;37.25;;;11.80;;
67861;SDS011;54665;51.462;6.698;2023-11-21T00:59:58;34.13;;;12.40;;
67861;SDS011;54665;51.462;6.698;2023-11-21T01:01:59;33.20;;;11.97;;
67861;SDS011;54665;51.462;6.698;2023-11-21T01:03:59;35.40;;;11.60;;
67861;SDS011;54665;51.462;6.698;2023-11-21T01:05:59;33.53;;;12.23;;
67861;SDS011;54665;51.462;6.698;2023-11-21T01:07:59;39.87;;;11.77;;
67861;SDS011;54665;51.462;6.698;2023-11-21T01:10:00;38.63;;;11.90;;
67861;SDS011;54665;51.462;6.698;2023-11-21T01:12:00;40.33;;;12.17;;
67861;SDS011;54665;51.462;6.698;2023-11-21T01:14:01;37.00;;;11.90;;
67861;SDS011;54665;51.462;6.698;2023-11-21T01:16:01;34.60;;;12.48;;
67861;SDS011;54665;51.462;6.698;2023-11-21T01:18:02;36.67;;;11.90;;
67861;SDS011;54665;51.462;6.698;2023-11-21T01:20:02;35.43;;;11.50;;
67861;SDS011;54665;51.462;6.698;2023-11-21T01:22:06;34.00;;;10.73;;
67861;SDS011;54665;51.462;6.698;2023-11-21T01:24:06;36.43;;;11.37;;
67861;SDS011;54665;51.462;6.698;2023-11-21T01:26:07;34.55;;;11.60;;
67861;SDS011;54665;51.462;6.698;2023-11-21T01:28:07;37.77;;;12.10;;
67861;SDS011;54665;51.462;6.698;2023-11-21T01:30:08;35.13;;;11.73;;
67861;SDS011;54665;51.462;6.698;2023-11-21T01:32:09;29.75;;;11.73;;
67861;SDS011;54665;51.462;6.698;2023-11-21T01:34:09;33.07;;;10.90;;
67861;SDS011;54665;51.462;6.698;2023-11-21T01:36:09;32.33;;;11.23;;
67861;SDS011;54665;51.462;6.698;2023-11-21T01:38:10;36.83;;;11.63;;
67861;SDS011;54665;51.462;6.698;2023-11-21T01:40:10;38.87;;;11.60;;
67861;SDS011;54665;51.462;6.698;2023-11-21T01:42:11;32.08;;;10.93;;
67861;SDS011;54665;51.462;6.698;2023-11-21T01:44:11;34.23;;;11.37;;
67861;SDS011;54665;51.462;6.698;2023-11-21T01:46:11;35.50;;;11.80;;
67861;SDS011;54665;51.462;6.698;2023-11-21T01:48:12;32.87;;;11.37;;
67861;SDS011;54665;51.462;6.698;2023-11-21T01:50:14;35.20;;;11.20;;
67861;SDS011;54665;51.462;6.698;2023-11-21T01:52:16;32.45;;;11.30;;
67861;SDS011;54665;51.462;6.698;2023-11-21T01:54:16;39.87;;;12.53;;
67861;SDS011;54665;51.462;6.698;2023-11-21T01:56:18;35.03;;;11.35;;
67861;SDS011;54665;51.462;6.698;2023-11-21T01:58:19;32.93;;;11.10;;
67861;SDS011;54665;51.462;6.698;2023-11-21T02:00:20;31.70;;;11.90;;
67861;SDS011;54665;51.462;6.698;2023-11-21T02:02:20;36.33;;;11.90;;
67861;SDS011;54665;51.462;6.698;2023-11-21T02:04:20;37.60;;;11.50;;
67861;SDS011;54665;51.462;6.698;2023-11-21T02:06:21;31.27;;;11.50;;
67861;SDS011;54665;51.462;6.698;2023-11-21T02:08:21;29.75;;;11.15;;
67861;SDS011;54665;51.462;6.698;2023-11-21T02:10:22;34.93;;;11.47;;
67861;SDS011;54665;51.462;6.698;2023-11-21T02:12:22;37.50;;;11.63;;
67861;SDS011;54665;51.462;6.698;2023-11-21T02:14:23;32.70;;;11.50;;
67861;SDS011;54665;51.462;6.698;2023-11-21T02:16:23;33.40;;;11.53;;
67861;SDS011;54665;51.462;6.698;2023-11-21T02:18:23;39.97;;;12.00;;
67861;SDS011;54665;51.462;6.698;2023-11-21T02:20:24;37.50;;;11.70;;
67861;SDS011;54665;51.462;6.698;2023-11-21T02:22:24;37.33;;;12.13;;
67861;SDS011;54665;51.462;6.698;2023-11-21T02:24:30;36.40;;;12.00;;
67861;SDS011;54665;51.462;6.698;2023-11-21T02:26:31;41.77;;;12.23;;
67861;SDS011;54665;51.462;6.698;2023-11-21T02:28:31;43.00;;;11.70;;
67861;SDS011;54665;51.462;6.698;2023-11-21T02:30:31;37.17;;;11.70;;
67861;SDS011;54665;51.462;6.698;2023-11-21T02:32:32;41.03;;;12.27;;
67861;SDS011;54665;51.462;6.698;2023-11-21T02:34:32;37.83;;;12.30;;
67861;SDS011;54665;51.462;6.698;2023-11-21T02:36:32;39.87;;;12.83;;
67861;SDS011;54665;51.462;6.698;2023-11-21T02:38:33;41.73;;;11.70;;
67861;SDS011;54665;51.462;6.698;2023-11-21T02:40:33;50.43;;;14.13;;
67861;SDS011;54665;51.462;6.698;2023-11-21T02:42:33;44.80;;;13.30;;
67861;SDS011;54665;51.462;6.698;2023-11-21T02:44:34;46.03;;;13.67;;
67861;SDS011;54665;51.462;6.698;2023-11-21T02:46:34;52.47;;;14.33;;
67861;SDS011;54665;51.462;6.698;2023-11-21T02:48:34;52.22;;;13.68;;
67861;SDS011;54665;51.462;6.698;2023-11-21T02:50:35;51.57;;;14.37;;
67861;SDS011;54665;51.462;6.698;2023-11-21T02:52:35;50.00;;;13.63;;
67861;SDS011;54665;51.462;6.698;2023-11-21T02:54:36;51.10;;;14.43;;
67861;SDS011;54665;51.462;6.698;2023-11-21T02:56:36;52.43;;;14.27;;
67861;SDS011;54665;51.462;6.698;2023-11-21T02:58:37;47.97;;;14.30;;
67861;SDS011;54665;51.462;6.698;2023-11-21T03:00:37;46.40;;;14.03;;
67861;SDS011;54665;51.462;6.698;2023-11-21T03:02:38;50.17;;;14.53;;
67861;SDS011;54665;51.462;6.698;2023-11-21T03:04:38;52.05;;;15.05;;
67861;SDS011;54665;51.462;6.698;2023-11-21T03:06:39;49.50;;;14.93;;
67861;SDS011;54665;51.462;6.698;2023-11-21T03:08:39;53.40;;;15.23;;
67861;SDS011;54665;51.462;6.698;2023-11-21T03:10:39;49.70;;;15.37;;
67861;SDS011;54665;51.462;6.698;2023-11-21T03:12:40;52.67;;;15.57;;
67861;SDS011;54665;51.462;6.698;2023-11-21T03:14:40;56.07;;;15.27;;
67861;SDS011;54665;51.462;6.698;2023-11-21T03:16:40;51.20;;;15.27;;
67861;SDS011;54665;51.462;6.698;2023-11-21T03:18:41;46.20;;;15.30;;
67861;SDS011;54665;51.462;6.698;2023-11-21T03:20:42;53.67;;;16.55;;
67861;SDS011;54665;51.462;6.698;2023-11-21T03:22:43;58.33;;;15.57;;
67861;SDS011;54665;51.462;6.698;2023-11-21T03:24:43;49.07;;;15.37;;
67861;SDS011;54665;51.462;6.698;2023-11-21T03:26:44;55.95;;;16.08;;
67861;SDS011;54665;51.462;6.698;2023-11-21T03:28:48;58.43;;;15.77;;
67861;SDS011;54665;51.462;6.698;2023-11-21T03:30:48;58.37;;;16.17;;
67861;SDS011;54665;51.462;6.698;2023-11-21T03:32:48;51.95;;;14.70;;
67861;SDS011;54665;51.462;6.698;2023-11-21T03:34:53;55.73;;;14.87;;
67861;SDS011;54665;51.462;6.698;2023-11-21T03:36:57;56.90;;;15.90;;
67861;SDS011;54665;51.462;6.698;2023-11-21T03:38:57;52.77;;;15.37;;
67861;SDS011;54665;51.462;6.698;2023-11-21T03:40:58;58.87;;;15.97;;
67861;SDS011;54665;51.462;6.698;2023-11-21T03:42:58;49.30;;;15.37;;
67861;SDS011;54665;51.462;6.698;2023-11-21T03:44:58;54.13;;;15.33;;
67861;SDS011;54665;51.462;6.698;2023-11-21T03:46:59;54.33;;;15.23;;
67861;SDS011;54665;51.462;6.698;2023-11-21T03:48:59;49.95;;;14.52;;
67861;SDS011;54665;51.462;6.698;2023-11-21T03:50:59;51.27;;;14.60;;
67861;SDS011;54665;51.462;6.698;2023-11-21T03:53:00;53.77;;;14.73;;
67861;SDS011;54665;51.462;6.698;2023-11-21T03:55:02;44.83;;;14.40;;
67861;SDS011;54665;51.462;6.698;2023-11-21T03:57:03;41.50;;;13.43;;
67861;SDS011;54665;51.462;6.698;2023-11-21T03:59:03;51.73;;;14.30;;
67861;SDS011;54665;51.462;6.698;2023-11-21T04:01:04;43.50;;;13.63;;
67861;SDS011;54665;51.462;6.698;2023-11-21T04:03:04;45.58;;;13.55;;
67861;SDS011;54665;51.462;6.698;2023-11-21T04:05:05;47.07;;;13.67;;
67861;SDS011;54665;51.462;6.698;2023-11-21T04:07:05;41.92;;;13.40;;
67861;SDS011;54665;51.462;6.698;2023-11-21T04:09:06;44.83;;;13.30;;
67861;SDS011;54665;51.462;6.698;2023-11-21T04:11:06;43.63;;;13.10;;
67861;SDS011;54665;51.462;6.698;2023-11-21T04:13:06;41.77;;;12.30;;
67861;SDS011;54665;51.462;6.698;2023-11-21T04:15:07;49.30;;;13.63;;
67861;SDS011;54665;51.462;6.698;2023-11-21T04:17:08;39.70;;;13.07;;
67861;SDS011;54665;51.462;6.698;2023-11-21T04:19:08;38.73;;;12.47;;
67861;SDS011;54665;51.462;6.698;2023-11-21T04:21:08;47.50;;;12.80;;
67861;SDS011;54665;51.462;6.698;2023-11-21T04:23:09;38.13;;;11.67;;
67861;SDS011;54665;51.462;6.698;2023-11-21T04:25:13;45.13;;;12.27;;
67861;SDS011;54665;51.462;6.698;2023-11-21T04:27:14;41.17;;;12.52;;
67861;SDS011;54665;51.462;6.698;2023-11-21T04:29:15;46.03;;;13.30;;
67861;SDS011;54665;51.462;6.698;2023-11-21T04:31:15;42.07;;;11.97;;
67861;SDS011;54665;51.462;6.698;2023-11-21T04:33:15;41.90;;;12.33;;
67861;SDS011;54665;51.462;6.698;2023-11-21T04:35:16;43.40;;;12.45;;
67861;SDS011;54665;51.462;6.698;2023-11-21T04:37:16;35.03;;;11.23;;
67861;SDS011;54665;51.462;6.698;2023-11-21T04:39:16;37.10;;;11.33;;
67861;SDS011;54665;51.462;6.698;2023-11-21T04:41:20;35.35;;;11.57;;
67861;SDS011;54665;51.462;6.698;2023-11-21T04:43:20;61.40;;;11.97;;
67861;SDS011;54665;51.462;6.698;2023-11-21T04:45:21;43.30;;;12.20;;
67861;SDS011;54665;51.462;6.698;2023-11-21T04:47:21;43.80;;;12.40;;
67861;SDS011;54665;51.462;6.698;2023-11-21T04:49:21;37.23;;;11.93;;
67861;SDS011;54665;51.462;6.698;2023-11-21T04:51:21;37.30;;;11.80;;
67861;SDS011;54665;51.462;6.698;2023-11-21T04:53:22;36.80;;;12.03;;
67861;SDS011;54665;51.462;6.698;2023-11-21T04:55:22;39.10;;;12.07;;
67861;SDS011;54665;51.462;6.698;2023-11-21T04:57:25;38.73;;;11.87;;
67861;SDS011;54665;51.462;6.698;2023-11-21T04:59:25;36.72;;;11.30;;
67861;SDS011;54665;51.462;6.698;2023-11-21T05:01:26;44.50;;;12.47;;
67861;SDS011;54665;51.462;6.698;2023-11-21T05:03:26;41.43;;;12.50;;
67861;SDS011;54665;51.462;6.698;2023-11-21T05:05:26;40.90;;;12.13;;
67861;SDS011;54665;51.462;6.698;2023-11-21T05:07:27;39.23;;;11.50;;
67861;SDS011;54665;51.462;6.698;2023-11-21T05:09:27;43.63;;;11.87;;
67861;SDS011;54665;51.462;6.698;2023-11-21T05:11:27;37.53;;;11.97;;
67861;SDS011;54665;51.462;6.698;2023-11-21T05:13:29;40.85;;;12.23;;
67861;SDS011;54665;51.462;6.698;2023-11-21T05:15:29;43.67;;;12.03;;
67861;SDS011;54665;51.462;6.698;2023-11-21T05:17:29;44.93;;;12.07;;
67861;SDS011;54665;51.462;6.698;2023-11-21T05:19:30;44.07;;;12.67;;
67861;SDS011;54665;51.462;6.698;2023-11-21T05:21:30;37.73;;;11.20;;
67861;SDS011;54665;51.462;6.698;2023-11-21T05:23:30;45.87;;;12.10;;
67861;SDS011;54665;51.462;6.698;2023-11-21T05:25:31;46.30;;;12.70;;
67861;SDS011;54665;51.462;6.698;2023-11-21T05:27:31;54.10;;;13.37;;
67861;SDS011;54665;51.462;6.698;2023-11-21T05:29:31;55.87;;;14.33;;
67861;SDS011;54665;51.462;6.698;2023-11-21T05:31:31;63.17;;;14.77;;
67861;SDS011;54665;51.462;6.698;2023-11-21T05:33:32;62.60;;;14.13;;
67861;SDS011;54665;51.462;6.698;2023-11-21T05:35:32;67.40;;;15.63;;
67861;SDS011;54665;51.462;6.698;2023-11-21T05:37:32;62.70;;;15.53;;
67861;SDS011;54665;51.462;6.698;2023-11-21T05:39:33;65.67;;;15.50;;
67861;SDS011;54665;51.462;6.698;2023-11-21T05:41:33;80.93;;;17.00;;
67861;SDS011;54665;51.462;6.698;2023-11-21T05:43:33;78.20;;;15.70;;
67861;SDS011;54665;51.462;6.698;2023-11-21T05:45:34;88.87;;;17.57;;
67861;SDS011;54665;51.462;6.698;2023-11-21T05:47:35;80.35;;;17.75;;
67861;SDS011;54665;51.462;6.698;2023-11-21T05:49:39;87.27;;;18.27;;
67861;SDS011;54665;51.462;6.698;2023-11-21T05:51:39;82.65;;;17.45;;
67861;SDS011;54665;51.462;6.698;2023-11-21T05:53:40;89.47;;;16.60;;
67861;SDS011;54665;51.462;6.698;2023-11-21T05:55:40;94.37;;;18.57;;
67861;SDS011;54665;51.462;6.698;2023-11-21T05:57:41;88.93;;;18.43;;
67861;SDS011;54665;51.462;6.698;2023-11-21T05:59:42;91.05;;;18.30;;
67861;SDS011;54665;51.462;6.698;2023-11-21T06:01:42;84.77;;;17.33;;
67861;SDS011;54665;51.462;6.698;2023-11-21T06:03:43;94.50;;;19.13;;
67861;SDS011;54665;51.462;6.698;2023-11-21T06:05:43;93.47;;;18.70;;
67861;SDS011;54665;51.462;6.698;2023-11-21T06:07:43;97.20;;;18.77;;
67861;SDS011;54665;51.462;6.698;2023-11-21T06:09:44;90.73;;;19.23;;
67861;SDS011;54665;51.462;6.698;2023-11-21T06:11:44;87.37;;;18.40;;
67861;SDS011;54665;51.462;6.698;2023-11-21T06:13:44;81.40;;;19.05;;
67861;SDS011;54665;51.462;6.698;2023-11-21T06:15:45;88.03;;;17.23;;
67861;SDS011;54665;51.462;6.698;2023-11-21T06:17:45;87.33;;;18.50;;
67861;SDS011;54665;51.462;6.698;2023-11-21T06:19:45;85.97;;;17.87;;
67861;SDS011;54665;51.462;6.698;2023-11-21T06:21:46;86.03;;;17.60;;
67861;SDS011;54665;51.462;6.698;2023-11-21T06:23:46;90.07;;;18.38;;
67861;SDS011;54665;51.462;6.698;2023-11-21T06:25:47;90.20;;;17.83;;
67861;SDS011;54665;51.462;6.698;2023-11-21T06:27:47;90.93;;;17.50;;
67861;SDS011;54665;51.462;6.698;2023-11-21T06:29:48;95.88;;;17.80;;
67861;SDS011;54665;51.462;6.698;2023-11-21T06:31:49;87.97;;;17.37;;
67861;SDS011;54665;51.462;6.698;2023-11-21T06:33:49;98.43;;;18.53;;
67861;SDS011;54665;51.462;6.698;2023-11-21T06:35:49;89.35;;;17.95;;
67861;SDS011;54665;51.462;6.698;2023-11-21T06:37:50;96.20;;;19.00;;
67861;SDS011;54665;51.462;6.698;2023-11-21T06:39:50;109.07;;;19.30;;
67861;SDS011;54665;51.462;6.698;2023-11-21T06:41:50;99.33;;;18.03;;
67861;SDS011;54665;51.462;6.698;2023-11-21T06:43:51;102.73;;;18.93;;
67861;SDS011;54665;51.462;6.698;2023-11-21T06:45:51;99.47;;;18.97;;
67861;SDS011;54665;51.462;6.698;2023-11-21T06:47:51;103.30;;;18.60;;
67861;SDS011;54665;51.462;6.698;2023-11-21T06:49:52;99.63;;;19.33;;
67861;SDS011;54665;51.462;6.698;2023-11-21T06:51:52;102.20;;;18.88;;
67861;SDS011;54665;51.462;6.698;2023-11-21T06:53:53;94.83;;;18.47;;
67861;SDS011;54665;51.462;6.698;2023-11-21T06:55:53;84.17;;;18.37;;
67861;SDS011;54665;51.462;6.698;2023-11-21T06:57:53;92.03;;;18.40;;
67861;SDS011;54665;51.462;6.698;2023-11-21T06:59:54;84.07;;;17.27;;
67861;SDS011;54665;51.462;6.698;2023-11-21T07:01:54;89.97;;;17.93;;
67861;SDS011;54665;51.462;6.698;2023-11-21T07:03:54;91.13;;;18.13;;
67861;SDS011;54665;51.462;6.698;2023-11-21T07:05:55;86.63;;;17.63;;
67861;SDS011;54665;51.462;6.698;2023-11-21T07:07:55;101.27;;;18.63;;
67861;SDS011;54665;51.462;6.698;2023-11-21T07:09:55;89.80;;;18.07;;
67861;SDS011;54665;51.462;6.698;2023-11-21T07:11:55;96.93;;;18.73;;
67861;SDS011;54665;51.462;6.698;2023-11-21T07:13:56;100.22;;;18.63;;
67861;SDS011;54665;51.462;6.698;2023-11-21T07:15:59;104.13;;;18.10;;
67861;SDS011;54665;51.462;6.698;2023-11-21T07:18:00;99.38;;;19.20;;
67861;SDS011;54665;51.462;6.698;2023-11-21T07:20:00;86.73;;;17.70;;
67861;SDS011;54665;51.462;6.698;2023-11-21T07:22:01;98.82;;;18.38;;
67861;SDS011;54665;51.462;6.698;2023-11-21T07:24:02;93.70;;;18.10;;
67861;SDS011;54665;51.462;6.698;2023-11-21T07:26:03;80.50;;;18.23;;
67861;SDS011;54665;51.462;6.698;2023-11-21T07:28:04;84.17;;;17.97;;
67861;SDS011;54665;51.462;6.698;2023-11-21T07:30:04;84.83;;;17.03;;
67861;SDS011;54665;51.462;6.698;2023-11-21T07:32:05;76.82;;;16.95;;
67861;SDS011;54665;51.462;6.698;2023-11-21T07:34:05;75.03;;;16.53;;
67861;SDS011;54665;51.462;6.698;2023-11-21T07:36:06;72.63;;;16.37;;
67861;SDS011;54665;51.462;6.698;2023-11-21T07:38:07;69.95;;;16.80;;
67861;SDS011;54665;51.462;6.698;2023-11-21T07:40:07;58.50;;;15.03;;
67861;SDS011;54665;51.462;6.698;2023-11-21T07:42:08;65.97;;;15.70;;
67861;SDS011;54665;51.462;6.698;2023-11-21T07:44:11;62.03;;;14.50;;
67861;SDS011;54665;51.462;6.698;2023-11-21T07:46:12;57.35;;;14.57;;
67861;SDS011;54665;51.462;6.698;2023-11-21T07:48:13;58.07;;;13.97;;
67861;SDS011;54665;51.462;6.698;2023-11-21T07:50:14;61.72;;;15.52;;
67861;SDS011;54665;51.462;6.698;2023-11-21T07:52:14;57.37;;;14.27;;
67861;SDS011;54665;51.462;6.698;2023-11-21T07:54:14;67.67;;;15.83;;
67861;SDS011;54665;51.462;6.698;2023-11-21T07:56:15;67.63;;;15.87;;
67861;SDS011;54665;51.462;6.698;2023-11-21T07:58:15;70.40;;;17.00;;
67861;SDS011;54665;51.462;6.698;2023-11-21T08:00:16;71.80;;;16.37;;
67861;SDS011;54665;51.462;6.698;2023-11-21T08:02:16;73.20;;;17.80;;
67861;SDS011;54665;51.462;6.698;2023-11-21T08:04:16;76.87;;;17.27;;
67861;SDS011;54665;51.462;6.698;2023-11-21T08:06:17;73.60;;;16.47;;
67861;SDS011;54665;51.462;6.698;2023-11-21T08:08:17;85.17;;;17.33;;
67861;SDS011;54665;51.462;6.698;2023-11-21T08:10:17;86.93;;;18.33;;
67861;SDS011;54665;51.462;6.698;2023-11-21T08:12:18;86.20;;;18.53;;
67861;SDS011;54665;51.462;6.698;2023-11-21T08:14:18;85.25;;;18.25;;
67861;SDS011;54665;51.462;6.698;2023-11-21T08:16:19;70.75;;;17.25;;
67861;SDS011;54665;51.462;6.698;2023-11-21T08:18:19;75.83;;;17.20;;
67861;SDS011;54665;51.462;6.698;2023-11-21T08:20:20;72.83;;;16.13;;
67861;SDS011;54665;51.462;6.698;2023-11-21T08:22:20;70.37;;;16.13;;
67861;SDS011;54665;51.462;6.698;2023-11-21T08:24:21;67.77;;;15.67;;
67861;SDS011;54665;51.462;6.698;2023-11-21T08:26:21;65.18;;;15.80;;
67861;SDS011;54665;51.462;6.698;2023-11-21T08:28:22;66.47;;;15.93;;
67861;SDS011;54665;51.462;6.698;2023-11-21T08:30:22;59.37;;;16.00;;
67861;SDS011;54665;51.462;6.698;2023-11-21T08:32:22;62.97;;;14.97;;
67861;SDS011;54665;51.462;6.698;2023-11-21T08:34:23;61.20;;;15.68;;
67861;SDS011;54665;51.462;6.698;2023-11-21T08:36:23;66.53;;;16.30;;
67861;SDS011;54665;51.462;6.698;2023-11-21T08:38:23;60.87;;;14.97;;
67861;SDS011;54665;51.462;6.698;2023-11-21T08:40:24;62.37;;;15.70;;
67861;SDS011;54665;51.462;6.698;2023-11-21T08:42:27;58.73;;;15.20;;
67861;SDS011;54665;51.462;6.698;2023-11-21T08:44:27;59.92;;;14.65;;
67861;SDS011;54665;51.462;6.698;2023-11-21T08:46:27;62.57;;;15.27;;
67861;SDS011;54665;51.462;6.698;2023-11-21T08:48:28;56.97;;;15.20;;
67861;SDS011;54665;51.462;6.698;2023-11-21T08:50:28;68.83;;;15.37;;
67861;SDS011;54665;51.462;6.698;2023-11-21T08:52:29;64.32;;;15.18;;
67861;SDS011;54665;51.462;6.698;2023-11-21T08:54:29;65.23;;;16.23;;
67861;SDS011;54665;51.462;6.698;2023-11-21T08:56:29;65.20;;;15.57;;
67861;SDS011;54665;51.462;6.698;2023-11-21T08:58:32;75.47;;;17.10;;
67861;SDS011;54665;51.462;6.698;2023-11-21T09:00:33;94.90;;;22.38;;
67861;SDS011;54665;51.462;6.698;2023-11-21T09:02:33;94.20;;;23.80;;
67861;SDS011;54665;51.462;6.698;2023-11-21T09:04:33;93.70;;;21.17;;
67861;SDS011;54665;51.462;6.698;2023-11-21T09:06:34;144.47;;;39.17;;
67861;SDS011;54665;51.462;6.698;2023-11-21T09:08:34;148.40;;;38.50;;
67861;SDS011;54665;51.462;6.698;2023-11-21T09:10:34;140.53;;;36.77;;
67861;SDS011;54665;51.462;6.698;2023-11-21T09:12:35;103.50;;;26.03;;
67861;SDS011;54665;51.462;6.698;2023-11-21T09:14:36;79.72;;;19.55;;
67861;SDS011;54665;51.462;6.698;2023-11-21T09:16:37;78.50;;;17.03;;
67861;SDS011;54665;51.462;6.698;2023-11-21T09:18:37;63.43;;;15.70;;
67861;SDS011;54665;51.462;6.698;2023-11-21T09:20:37;65.87;;;15.70;;
67861;SDS011;54665;51.462;6.698;2023-11-21T09:22:37;59.03;;;15.60;;
67861;SDS011;54665;51.462;6.698;2023-11-21T09:24:38;61.17;;;15.13;;
67861;SDS011;54665;51.462;6.698;2023-11-21T09:26:38;59.55;;;15.85;;
67861;SDS011;54665;51.462;6.698;2023-11-21T09:28:38;59.60;;;14.90;;
67861;SDS011;54665;51.462;6.698;2023-11-21T09:30:39;60.03;;;15.17;;
67861;SDS011;54665;51.462;6.698;2023-11-21T09:32:39;57.10;;;15.37;;
67861;SDS011;54665;51.462;6.698;2023-11-21T09:34:40;60.33;;;15.63;;
67861;SDS011;54665;51.462;6.698;2023-11-21T09:36:40;63.87;;;16.10;;
67861;SDS011;54665;51.462;6.698;2023-11-21T09:38:41;54.23;;;13.70;;
67861;SDS011;54665;51.462;6.698;2023-11-21T09:40:41;51.23;;;14.37;;
67861;SDS011;54665;51.462;6.698;2023-11-21T09:43:04;53.08;;;13.90;;
67861;SDS011;54665;51.462;6.698;2023-11-21T09:45:07;51.23;;;14.00;;
67861;SDS011;54665;51.462;6.698;2023-11-21T09:47:15;55.17;;;14.45;;
67861;SDS011;54665;51.462;6.698;2023-11-21T09:49:16;60.63;;;19.65;;
67861;SDS011;54665;51.462;6.698;2023-11-21T09:51:22;52.40;;;15.27;;
67861;SDS011;54665;51.462;6.698;2023-11-21T09:53:26;50.70;;;13.93;;
67861;SDS011;54665;51.462;6.698;2023-11-21T09:55:32;51.03;;;13.85;;
67861;SDS011;54665;51.462;6.698;2023-11-21T09:57:34;49.17;;;14.00;;
67861;SDS011;54665;51.462;6.698;2023-11-21T09:59:35;52.70;;;14.20;;
67861;SDS011;54665;51.462;6.698;2023-11-21T10:01:36;49.85;;;15.18;;
67861;SDS011;54665;51.462;6.698;2023-11-21T10:03:37;44.65;;;13.05;;
67861;SDS011;54665;51.462;6.698;2023-11-21T10:05:38;42.73;;;12.33;;
67861;SDS011;54665;51.462;6.698;2023-11-21T10:07:39;42.47;;;13.25;;
67861;SDS011;54665;51.462;6.698;2023-11-21T10:09:41;39.25;;;12.38;;
67861;SDS011;54665;51.462;6.698;2023-11-21T10:11:42;44.73;;;12.93;;
67861;SDS011;54665;51.462;6.698;2023-11-21T10:13:43;49.25;;;15.50;;
67861;SDS011;54665;51.462;6.698;2023-11-21T10:15:49;61.53;;;15.55;;
67861;SDS011;54665;51.462;6.698;2023-11-21T10:17:50;55.00;;;15.27;;
67861;SDS011;54665;51.462;6.698;2023-11-21T10:19:52;60.42;;;16.52;;
67861;SDS011;54665;51.462;6.698;2023-11-21T10:21:53;59.88;;;15.27;;
67861;SDS011;54665;51.462;6.698;2023-11-21T10:23:53;46.33;;;13.10;;
67861;SDS011;54665;51.462;6.698;2023-11-21T10:25:54;56.27;;;15.13;;
67861;SDS011;54665;51.462;6.698;2023-11-21T10:27:57;53.60;;;15.93;;
67861;SDS011;54665;51.462;6.698;2023-11-21T10:30:00;53.83;;;15.15;;
67861;SDS011;54665;51.462;6.698;2023-11-21T10:32:02;57.53;;;19.10;;
67861;SDS011;54665;51.462;6.698;2023-11-21T10:34:19;51.22;;;16.65;;
67861;SDS011;54665;51.462;6.698;2023-11-21T10:36:26;52.50;;;16.37;;
67861;SDS011;54665;51.462;6.698;2023-11-21T10:38:32;59.50;;;16.85;;
67861;SDS011;54665;51.462;6.698;2023-11-21T10:40:41;53.10;;;15.45;;
67861;SDS011;54665;51.462;6.698;2023-11-21T10:42:42;49.60;;;16.50;;
67861;SDS011;54665;51.462;6.698;2023-11-21T10:44:42;52.83;;;17.43;;
67861;SDS011;54665;51.462;6.698;2023-11-21T10:46:42;49.77;;;16.27;;
67861;SDS011;54665;51.462;6.698;2023-11-21T10:48:43;54.03;;;16.65;;
67861;SDS011;54665;51.462;6.698;2023-11-21T10:50:44;50.47;;;16.63;;
67861;SDS011;54665;51.462;6.698;2023-11-21T10:52:45;48.58;;;15.70;;
67861;SDS011;54665;51.462;6.698;2023-11-21T10:54:46;48.63;;;15.67;;
67861;SDS011;54665;51.462;6.698;2023-11-21T10:56:47;46.00;;;15.33;;
67861;SDS011;54665;51.462;6.698;2023-11-21T10:58:50;50.17;;;16.33;;
67861;SDS011;54665;51.462;6.698;2023-11-21T11:00:50;47.30;;;15.93;;
67861;SDS011;54665;51.462;6.698;2023-11-21T11:02:51;45.00;;;15.23;;
67861;SDS011;54665;51.462;6.698;2023-11-21T11:04:52;54.30;;;18.13;;
67861;SDS011;54665;51.462;6.698;2023-11-21T11:06:55;59.58;;;18.55;;
67861;SDS011;54665;51.462;6.698;2023-11-21T11:08:57;42.63;;;13.23;;
67861;SDS011;54665;51.462;6.698;2023-11-21T11:10:58;68.22;;;24.45;;
67861;SDS011;54665;51.462;6.698;2023-11-21T11:12:58;77.40;;;27.83;;
67861;SDS011;54665;51.462;6.698;2023-11-21T11:14:59;57.03;;;18.20;;
67861;SDS011;54665;51.462;6.698;2023-11-21T11:17:01;74.30;;;26.10;;
67861;SDS011;54665;51.462;6.698;2023-11-21T11:19:01;49.75;;;14.93;;
67861;SDS011;54665;51.462;6.698;2023-11-21T11:21:16;76.40;;;25.83;;
67861;SDS011;54665;51.462;6.698;2023-11-21T11:23:49;41.58;;;13.77;;
67861;SDS011;54665;51.462;6.698;2023-11-21T11:28:47;79.33;;;28.43;;
67861;SDS011;54665;51.462;6.698;2023-11-21T11:33:31;50.72;;;15.88;;
67861;SDS011;54665;51.462;6.698;2023-11-21T11:38:01;54.40;;;14.82;;
67861;SDS011;54665;51.462;6.698;2023-11-21T11:40:01;50.10;;;14.97;;
67861;SDS011;54665;51.462;6.698;2023-11-21T11:42:06;52.95;;;16.48;;
67861;SDS011;54665;51.462;6.698;2023-11-21T11:44:46;47.63;;;15.60;;
67861;SDS011;54665;51.462;6.698;2023-11-21T11:46:46;56.03;;;16.35;;
67861;SDS011;54665;51.462;6.698;2023-11-21T11:48:46;54.43;;;16.07;;
67861;SDS011;54665;51.462;6.698;2023-11-21T11:51:01;63.53;;;19.52;;
67861;SDS011;54665;51.462;6.698;2023-11-21T11:53:12;80.18;;;26.63;;
67861;SDS011;54665;51.462;6.698;2023-11-21T11:55:13;59.40;;;16.07;;
67861;SDS011;54665;51.462;6.698;2023-11-21T11:57:15;51.97;;;15.40;;